createdAt,value
2023-04-01T00:01:30.133Z,9.40
2023-04-01T00:03:57.610Z,9.40
2023-04-01T00:06:24.653Z,9.40
2023-04-01T00:08:51.961Z,9.40
2023-04-01T00:11:20.579Z,9.30
2023-04-01T00:13:48.813Z,9.30
2023-04-01T00:18:48.505Z,9.30
2023-04-01T00:21:16.629Z,9.30
2023-04-01T00:23:44.889Z,9.30
2023-04-01T00:26:12.882Z,9.20
2023-04-01T00:28:40.719Z,9.20
2023-04-01T00:31:08.650Z,9.20
2023-04-01T00:33:36.833Z,9.20
2023-04-01T00:36:22.831Z,9.20
2023-04-01T00:38:51.520Z,9.20
2023-04-01T00:41:20.265Z,9.20
2023-04-01T00:43:49.991Z,9.20
2023-04-01T00:46:17.247Z,9.20
2023-04-01T00:48:54.964Z,9.20
2023-04-01T00:51:24.994Z,9.20
2023-04-01T00:53:54.985Z,9.20
2023-04-01T00:56:27.650Z,9.20
2023-04-01T00:59:00.144Z,9.20
2023-04-01T01:01:28.515Z,9.20
2023-04-01T01:03:56.099Z,9.20
2023-04-01T01:06:54.256Z,9.20
2023-04-01T01:09:44.340Z,9.20
2023-04-01T01:12:21.331Z,9.20
2023-04-01T01:15:10.559Z,9.20
2023-04-01T01:18:02.202Z,9.20
2023-04-01T01:20:41.836Z,9.20
2023-04-01T01:23:32.876Z,9.10
2023-04-01T01:26:09.248Z,9.20
2023-04-01T01:29:11.117Z,9.20
2023-04-01T01:32:05.869Z,9.20
2023-04-01T01:35:08.736Z,9.20
2023-04-01T01:37:36.724Z,9.20
2023-04-01T01:40:07.898Z,9.10
2023-04-01T01:42:40.574Z,9.20
2023-04-01T01:45:10.003Z,9.20
2023-04-01T01:47:38.752Z,9.20
2023-04-01T01:50:07.216Z,9.20
2023-04-01T01:52:34.683Z,9.20
2023-04-01T01:55:01.320Z,9.10
2023-04-01T01:57:40.137Z,9.20
2023-04-01T02:00:14.493Z,9.20
2023-04-01T02:02:46.930Z,9.20
2023-04-01T02:05:20.347Z,9.10
2023-04-01T02:07:49.124Z,9.10
2023-04-01T02:10:16.332Z,9.10
2023-04-01T02:12:47.777Z,9.10
2023-04-01T02:15:16.562Z,9.10
2023-04-01T02:17:49.021Z,9.10
2023-04-01T02:20:22.982Z,9.10
2023-04-01T02:22:53.148Z,9.10
2023-04-01T02:25:25.932Z,9.10
2023-04-01T02:27:54.502Z,9.00
2023-04-01T02:30:22.021Z,9.10
2023-04-01T02:32:49.531Z,9.10
2023-04-01T02:35:18.139Z,9.10
2023-04-01T02:37:49.710Z,9.10
2023-04-01T02:40:18.219Z,9.10
2023-04-01T02:42:46.034Z,9.10
2023-04-01T02:45:13.863Z,9.10
2023-04-01T02:47:41.734Z,9.10
2023-04-01T02:50:09.585Z,9.10
2023-04-01T02:52:36.932Z,9.10
2023-04-01T02:55:04.469Z,9.10
2023-04-01T02:57:32.367Z,9.10
2023-04-01T02:59:59.113Z,9.10
2023-04-01T03:02:26.864Z,9.10
2023-04-01T03:04:53.740Z,9.10
2023-04-01T03:07:21.026Z,9.10
2023-04-01T03:09:49.344Z,9.00
2023-04-01T03:12:16.693Z,9.10
2023-04-01T03:14:50.153Z,9.10
2023-04-01T03:17:17.936Z,9.10
2023-04-01T03:19:44.749Z,9.10
2023-04-01T03:22:12.975Z,9.10
2023-04-01T03:24:39.822Z,9.10
2023-04-01T03:27:07.217Z,9.10
2023-04-01T03:29:33.867Z,9.10
2023-04-01T03:32:01.286Z,9.10
2023-04-01T03:34:27.985Z,9.10
2023-04-01T03:36:55.235Z,9.10
2023-04-01T03:39:22.802Z,9.10
2023-04-01T03:41:51.197Z,9.10
2023-04-01T03:44:18.075Z,9.10
2023-04-01T03:46:48.851Z,9.10
2023-04-01T03:49:16.024Z,9.10
2023-04-01T03:51:44.473Z,9.10
2023-04-01T03:54:11.945Z,9.10
2023-04-01T03:56:40.007Z,9.10
2023-04-01T03:59:08.114Z,9.10
2023-04-01T04:01:36.041Z,9.10
2023-04-01T04:04:03.263Z,9.10
2023-04-01T04:06:31.708Z,9.10
2023-04-01T04:08:58.477Z,9.10
2023-04-01T04:11:26.938Z,9.10
2023-04-01T04:13:54.416Z,9.10
2023-04-01T04:16:22.924Z,9.10
2023-04-01T04:18:56.565Z,9.10
2023-04-01T04:21:23.967Z,9.10
2023-04-01T04:23:51.500Z,9.10
2023-04-01T04:26:20.067Z,9.10
2023-04-01T04:28:56.485Z,9.00
2023-04-01T04:31:25.729Z,9.00
2023-04-01T04:33:54.476Z,9.00
2023-04-01T04:36:22.718Z,9.00
2023-04-01T04:38:50.888Z,9.00
2023-04-01T04:41:19.954Z,9.00
2023-04-01T04:43:57.019Z,9.00
2023-04-01T04:46:26.202Z,9.00
2023-04-01T04:48:59.585Z,9.00
2023-04-01T04:51:27.310Z,9.00
2023-04-01T04:53:53.996Z,9.00
2023-04-01T04:56:30.267Z,9.00
2023-04-01T04:59:04.054Z,9.00
2023-04-01T05:01:41.785Z,9.00
2023-04-01T05:04:08.498Z,9.00
2023-04-01T05:06:36.047Z,9.00
2023-04-01T05:09:03.317Z,9.00
2023-04-01T05:11:30.664Z,9.00
2023-04-01T05:13:57.516Z,9.00
2023-04-01T05:16:24.874Z,9.00
2023-04-01T05:18:52.238Z,9.00
2023-04-01T05:21:19.261Z,9.00
2023-04-01T05:23:46.572Z,9.00
2023-04-01T05:26:15.522Z,9.00
2023-04-01T05:28:43.117Z,9.00
2023-04-01T05:31:11.089Z,9.00
2023-04-01T05:33:40.030Z,9.00
2023-04-01T05:36:15.671Z,8.90
2023-04-01T05:38:43.968Z,8.90
2023-04-01T05:41:13.003Z,8.90
2023-04-01T05:43:43.596Z,8.90
2023-04-01T05:46:30.317Z,9.00
2023-04-01T05:49:04.002Z,9.00
2023-04-01T05:51:31.234Z,9.00
2023-04-01T05:53:58.194Z,9.00
2023-04-01T05:56:25.235Z,9.00
2023-04-01T05:58:54.393Z,9.10
2023-04-01T06:01:22.913Z,9.10
2023-04-01T06:03:50.557Z,9.00
2023-04-01T06:06:24.922Z,9.00
2023-04-01T06:08:54.281Z,9.00
2023-04-01T06:11:44.303Z,9.00
2023-04-01T06:14:17.628Z,9.00
2023-04-01T06:17:14.038Z,9.00
2023-04-01T06:19:59.810Z,9.00
2023-04-01T06:22:38.026Z,9.00
2023-04-01T06:25:29.664Z,9.00
2023-04-01T06:28:37.921Z,9.00
2023-04-01T06:31:40.369Z,9.00
2023-04-01T06:34:41.224Z,9.00
2023-04-01T06:37:41.945Z,9.00
2023-04-01T06:40:34.189Z,9.00
2023-04-01T06:43:20.210Z,9.00
2023-04-01T06:46:20.617Z,9.10
2023-04-01T06:49:26.173Z,9.10
2023-04-01T06:52:44.471Z,9.10
2023-04-01T06:55:41.695Z,9.20
2023-04-01T06:58:38.605Z,9.20
2023-04-01T07:01:09.621Z,9.20
2023-04-01T07:03:42.280Z,9.20
2023-04-01T07:06:42.236Z,9.30
2023-04-01T07:09:23.153Z,9.30
2023-04-01T07:12:32.454Z,9.30
2023-04-01T07:15:26.508Z,9.40
2023-04-01T07:17:59.771Z,9.30
2023-04-01T07:20:32.034Z,9.40
2023-04-01T07:23:02.292Z,9.30
2023-04-01T07:25:45.671Z,9.30
2023-04-01T07:28:35.360Z,9.40
2023-04-01T07:31:34.245Z,9.30
2023-04-01T07:34:19.989Z,9.30
2023-04-01T07:36:55.618Z,9.40
2023-04-01T07:39:37.286Z,9.40
2023-04-01T07:42:37.145Z,9.40
2023-04-01T07:45:20.935Z,9.40
2023-04-01T07:48:35.910Z,9.50
2023-04-01T07:51:11.471Z,9.50
2023-04-01T07:53:46.863Z,9.50
2023-04-01T07:56:29.846Z,9.60
2023-04-01T07:59:18.046Z,9.50
2023-04-01T08:02:21.791Z,9.50
2023-04-01T08:05:29.614Z,9.50
2023-04-01T08:08:26.363Z,9.50
2023-04-01T08:11:57.848Z,9.50
2023-04-01T08:14:50.012Z,9.60
2023-04-01T08:17:57.813Z,9.50
2023-04-01T08:20:48.680Z,9.50
2023-04-01T08:23:23.459Z,9.60
2023-04-01T08:26:30.887Z,9.70
2023-04-01T08:29:11.240Z,9.60
2023-04-01T08:31:58.588Z,9.70
2023-04-01T08:34:29.209Z,9.60
2023-04-01T08:37:21.406Z,9.60
2023-04-01T08:39:57.623Z,9.70
2023-04-01T08:42:42.287Z,9.80
2023-04-01T08:45:41.134Z,9.80
2023-04-01T08:48:17.287Z,10.00
2023-04-01T08:51:15.506Z,10.20
2023-04-01T08:54:10.173Z,10.40
2023-04-01T08:57:01.130Z,10.60
2023-04-01T09:00:11.863Z,10.70
2023-04-01T09:03:34.265Z,10.90
2023-04-01T09:06:05.734Z,10.90
2023-04-01T09:09:03.267Z,10.80
2023-04-01T09:12:11.149Z,10.80
2023-04-01T09:15:09.246Z,10.60
2023-04-01T09:18:10.142Z,10.60
2023-04-01T09:20:58.491Z,10.50
2023-04-01T09:23:48.947Z,10.50
2023-04-01T09:26:52.285Z,10.50
2023-04-01T09:29:34.378Z,10.20
2023-04-01T09:32:29.005Z,10.20
2023-04-01T09:35:02.350Z,10.10
2023-04-01T09:37:54.070Z,10.10
2023-04-01T09:41:19.460Z,10.10
2023-04-01T09:44:36.021Z,10.20
2023-04-01T09:47:27.878Z,10.30
2023-04-01T09:50:19.081Z,10.40
2023-04-01T09:53:09.421Z,10.50
2023-04-01T09:56:12.492Z,10.50
2023-04-01T09:59:01.978Z,10.60
2023-04-01T10:02:35.406Z,10.70
2023-04-01T10:05:28.964Z,10.70
2023-04-01T10:08:20.495Z,10.70
2023-04-01T10:11:05.827Z,10.60
2023-04-01T10:13:49.004Z,10.50
2023-04-01T10:16:27.423Z,10.50
2023-04-01T10:19:33.252Z,10.40
2023-04-01T10:22:13.943Z,10.40
2023-04-01T10:25:06.326Z,10.40
2023-04-01T10:28:12.430Z,10.30
2023-04-01T10:31:36.467Z,10.30
2023-04-01T10:34:38.553Z,10.40
2023-04-01T10:37:34.319Z,10.40
2023-04-01T10:40:21.223Z,10.50
2023-04-01T10:43:25.920Z,10.50
2023-04-01T10:46:47.429Z,10.50
2023-04-01T10:49:59.099Z,10.60
2023-04-01T10:52:44.614Z,10.70
2023-04-01T10:56:01.264Z,10.70
2023-04-01T10:59:13.092Z,10.70
2023-04-01T11:02:12.034Z,10.70
2023-04-01T11:05:21.064Z,10.60
2023-04-01T11:08:06.066Z,10.60
2023-04-01T11:11:04.798Z,10.60
2023-04-01T11:13:36.930Z,10.60
2023-04-01T11:16:18.468Z,10.60
2023-04-01T11:19:09.068Z,10.70
2023-04-01T11:21:36.423Z,10.60
2023-04-01T11:24:26.719Z,10.60
2023-04-01T11:27:39.761Z,10.60
2023-04-01T11:30:43.097Z,10.50
2023-04-01T11:33:27.522Z,10.50
2023-04-01T11:36:29.226Z,10.40
2023-04-01T11:39:32.557Z,10.50
2023-04-01T11:42:16.670Z,10.40
2023-04-01T11:45:42.010Z,10.50
2023-04-01T11:48:23.479Z,10.40
2023-04-01T11:51:17.190Z,10.40
2023-04-01T11:53:43.953Z,10.40
2023-04-01T11:56:39.836Z,10.30
2023-04-01T11:59:24.984Z,10.40
2023-04-01T12:02:25.338Z,10.40
2023-04-01T12:05:04.109Z,10.40
2023-04-01T12:07:46.554Z,10.40
2023-04-01T12:10:20.596Z,10.50
2023-04-01T12:13:26.038Z,10.50
2023-04-01T12:16:25.687Z,10.50
2023-04-01T12:19:04.552Z,10.50
2023-04-01T12:21:39.329Z,10.50
2023-04-01T12:24:24.758Z,10.60
2023-04-01T12:27:08.413Z,10.70
2023-04-01T12:29:54.071Z,10.90
2023-04-01T12:32:33.961Z,11.00
2023-04-01T12:35:22.782Z,11.00
2023-04-01T12:38:27.678Z,11.00
2023-04-01T12:41:04.220Z,11.00
2023-04-01T12:44:09.996Z,11.00
2023-04-01T12:47:06.127Z,11.10
2023-04-01T12:49:54.646Z,11.20
2023-04-01T12:52:35.617Z,11.20
2023-04-01T12:55:16.976Z,11.30
2023-04-01T12:58:08.218Z,11.10
2023-04-01T13:01:09.519Z,11.10
2023-04-01T13:04:02.991Z,11.00
2023-04-01T13:07:07.743Z,11.00
2023-04-01T13:09:41.453Z,11.00
2023-04-01T13:12:39.814Z,11.00
2023-04-01T13:15:44.052Z,11.00
2023-04-01T13:18:23.674Z,11.00
2023-04-01T13:21:17.711Z,10.90
2023-04-01T13:24:24.095Z,10.90
2023-04-01T13:27:20.575Z,10.90
2023-04-01T13:30:08.618Z,10.90
2023-04-01T13:32:52.457Z,11.10
2023-04-01T13:35:42.728Z,11.10
2023-04-01T13:38:59.919Z,11.20
2023-04-01T13:41:37.538Z,11.20
2023-04-01T13:44:35.716Z,11.30
2023-04-01T13:47:21.171Z,11.40
2023-04-01T13:50:16.754Z,11.60
2023-04-01T13:53:15.729Z,11.70
2023-04-01T13:55:56.954Z,11.80
2023-04-01T13:58:36.375Z,11.90
2023-04-01T14:01:09.762Z,12.00
2023-04-01T14:03:49.164Z,12.00
2023-04-01T14:06:38.676Z,11.90
2023-04-01T14:09:43.641Z,11.90
2023-04-01T14:12:14.606Z,11.70
2023-04-01T14:14:55.239Z,11.60
2023-04-01T14:18:00.313Z,11.50
2023-04-01T14:20:38.767Z,11.40
2023-04-01T14:23:26.667Z,11.40
2023-04-01T14:26:20.496Z,11.40
2023-04-01T14:29:11.061Z,11.40
2023-04-01T14:32:28.267Z,11.40
2023-04-01T14:35:22.936Z,11.40
2023-04-01T14:38:14.185Z,11.30
2023-04-01T14:40:53.492Z,11.30
2023-04-01T14:43:33.008Z,11.30
2023-04-01T14:46:43.282Z,11.30
2023-04-01T14:49:32.101Z,11.30
2023-04-01T14:52:25.508Z,11.30
2023-04-01T14:54:53.718Z,11.30
2023-04-01T14:57:31.963Z,11.20
2023-04-01T15:00:05.005Z,11.20
2023-04-01T15:02:53.242Z,11.20
2023-04-01T15:05:32.805Z,11.20
2023-04-01T15:08:21.185Z,11.20
2023-04-01T15:11:03.937Z,11.20
2023-04-01T15:13:30.867Z,11.20
2023-04-01T15:16:26.718Z,11.10
2023-04-01T15:19:11.085Z,11.10
2023-04-01T15:21:48.031Z,11.10
2023-04-01T15:24:14.592Z,11.10
2023-04-01T15:27:03.330Z,11.00
2023-04-01T15:29:42.976Z,11.00
2023-04-01T15:32:46.931Z,11.00
2023-04-01T15:35:26.239Z,10.90
2023-04-01T15:38:24.963Z,10.80
2023-04-01T15:41:02.904Z,10.80
2023-04-01T15:43:40.981Z,10.70
2023-04-01T15:46:32.990Z,10.70
2023-04-01T15:49:06.095Z,10.60
2023-04-01T15:52:01.571Z,10.60
2023-04-01T15:54:53.309Z,10.60
2023-04-01T15:57:38.085Z,10.50
2023-04-01T16:00:24.374Z,10.40
2023-04-01T16:03:14.735Z,10.30
2023-04-01T16:06:35.467Z,10.30
2023-04-01T16:09:21.714Z,10.30
2023-04-01T16:12:01.766Z,10.30
2023-04-01T16:14:34.487Z,10.30
2023-04-01T16:17:13.435Z,10.20
2023-04-01T16:19:54.365Z,10.20
2023-04-01T16:22:33.406Z,10.20
2023-04-01T16:25:30.374Z,10.20
2023-04-01T16:28:24.958Z,10.20
2023-04-01T16:31:01.017Z,10.20
2023-04-01T16:33:42.925Z,10.20
2023-04-01T16:36:21.634Z,10.20
2023-04-01T16:39:12.467Z,10.20
2023-04-01T16:41:59.193Z,10.20
2023-04-01T16:44:28.241Z,10.20
2023-04-01T16:47:11.021Z,10.20
2023-04-01T16:49:47.996Z,10.10
2023-04-01T16:52:17.841Z,10.20
2023-04-01T16:54:58.121Z,10.10
2023-04-01T16:57:38.594Z,10.10
2023-04-01T17:00:37.235Z,10.10
2023-04-01T17:03:34.780Z,10.10
2023-04-01T17:06:18.806Z,10.00
2023-04-01T17:09:16.870Z,10.10
2023-04-01T17:11:57.599Z,10.00
2023-04-01T17:14:42.952Z,10.00
2023-04-01T17:17:26.039Z,10.00
2023-04-01T17:20:21.517Z,10.00
2023-04-01T17:22:56.152Z,9.90
2023-04-01T17:25:40.017Z,9.90
2023-04-01T17:28:19.944Z,9.80
2023-04-01T17:31:06.134Z,9.80
2023-04-01T17:33:43.234Z,9.80
2023-04-01T17:36:21.015Z,9.70
2023-04-01T17:39:18.383Z,9.70
2023-04-01T17:42:05.297Z,9.70
2023-04-01T17:44:54.681Z,9.70
2023-04-01T17:47:43.162Z,9.70
2023-04-01T17:50:24.633Z,9.70
2023-04-01T17:53:09.505Z,9.70
2023-04-01T17:55:42.688Z,9.70
2023-04-01T17:58:22.511Z,9.70
2023-04-01T18:01:17.468Z,9.60
2023-04-01T18:03:53.061Z,9.60
2023-04-01T18:06:37.599Z,9.60
2023-04-01T18:09:46.480Z,9.60
2023-04-01T18:12:29.097Z,9.60
2023-04-01T18:15:14.676Z,9.60
2023-04-01T18:18:09.421Z,9.50
2023-04-01T18:20:44.272Z,9.50
2023-04-01T18:23:59.132Z,9.50
2023-04-01T18:26:32.619Z,9.40
2023-04-01T18:29:14.838Z,9.40
2023-04-01T18:32:09.074Z,9.40
2023-04-01T18:34:51.909Z,9.40
2023-04-01T18:37:31.450Z,9.40
2023-04-01T18:40:34.848Z,9.40
2023-04-01T18:43:20.993Z,9.30
2023-04-01T18:45:58.381Z,9.30
2023-04-01T18:48:57.773Z,9.30
2023-04-01T18:51:41.183Z,9.30
2023-04-01T18:54:23.018Z,9.20
2023-04-01T18:56:50.096Z,9.20
2023-04-01T18:59:43.435Z,9.30
2023-04-01T19:02:30.041Z,9.30
2023-04-01T19:05:26.053Z,9.20
2023-04-01T19:07:57.117Z,9.20
2023-04-01T19:10:54.523Z,9.20
2023-04-01T19:13:48.408Z,9.20
2023-04-01T19:16:33.910Z,9.20
2023-04-01T19:19:42.302Z,9.20
2023-04-01T19:22:32.708Z,9.20
2023-04-01T19:25:34.546Z,9.20
2023-04-01T19:28:27.760Z,9.20
2023-04-01T19:31:00.926Z,9.20
2023-04-01T19:34:00.161Z,9.20
2023-04-01T19:36:31.837Z,9.20
2023-04-01T19:39:17.052Z,9.20
2023-04-01T19:42:00.135Z,9.20
2023-04-01T19:45:05.226Z,9.20
2023-04-01T19:48:00.531Z,9.30
2023-04-01T19:50:27.348Z,9.20
2023-04-01T19:52:57.776Z,9.20
2023-04-01T19:55:46.291Z,9.30
2023-04-01T19:58:36.865Z,9.40
2023-04-01T20:01:07.533Z,9.40
2023-04-01T20:03:43.862Z,9.40
2023-04-01T20:06:25.306Z,9.40
2023-04-01T20:09:08.977Z,9.40
2023-04-01T20:11:51.755Z,9.40
2023-04-01T20:14:42.669Z,9.40
2023-04-01T20:17:33.329Z,9.40
2023-04-01T20:20:09.444Z,9.30
2023-04-01T20:22:46.191Z,9.30
2023-04-01T20:25:32.914Z,9.30
2023-04-01T20:28:24.228Z,9.30
2023-04-01T20:31:09.631Z,9.20
2023-04-01T20:33:42.708Z,9.20
2023-04-01T20:36:39.584Z,9.20
2023-04-01T20:39:31.088Z,9.10
2023-04-01T20:42:23.387Z,9.10
2023-04-01T20:45:08.507Z,9.10
2023-04-01T20:47:52.861Z,9.00
2023-04-01T20:50:46.299Z,9.00
2023-04-01T20:53:33.333Z,9.00
2023-04-01T20:56:14.786Z,9.00
2023-04-01T20:58:57.456Z,9.00
2023-04-01T21:01:48.856Z,9.00
2023-04-01T21:05:03.308Z,9.00
2023-04-01T21:07:43.735Z,8.90
2023-04-01T21:10:28.104Z,8.90
2023-04-01T21:13:34.643Z,8.90
2023-04-01T21:16:35.689Z,8.90
2023-04-01T21:19:08.129Z,8.80
2023-04-01T21:21:59.854Z,8.80
2023-04-01T21:24:40.351Z,8.80
2023-04-01T21:27:29.126Z,8.70
2023-04-01T21:30:08.608Z,8.70
2023-04-01T21:32:54.592Z,8.70
2023-04-01T21:36:04.811Z,8.60
2023-04-01T21:38:37.856Z,8.60
2023-04-01T21:41:26.824Z,8.60
2023-04-01T21:44:17.694Z,8.60
2023-04-01T21:47:24.951Z,8.60
2023-04-01T21:50:19.680Z,8.60
2023-04-01T21:52:55.885Z,8.50
2023-04-01T21:55:53.469Z,8.50
2023-04-01T21:59:00.343Z,8.50
2023-04-01T22:02:02.124Z,8.40
2023-04-01T22:04:59.751Z,8.30
2023-04-01T22:07:40.668Z,8.20
2023-04-01T22:10:34.082Z,8.20
2023-04-01T22:13:18.720Z,8.10
2023-04-01T22:15:58.340Z,8.10
2023-04-01T22:18:38.324Z,8.10
2023-04-01T22:21:14.038Z,8.00
2023-04-01T22:23:47.722Z,8.00
2023-04-01T22:26:40.266Z,7.90
2023-04-01T22:29:17.792Z,7.90
2023-04-01T22:31:52.957Z,7.80
2023-04-01T22:34:44.298Z,7.80
2023-04-01T22:37:13.683Z,7.80
2023-04-01T22:40:09.700Z,7.80
2023-04-01T22:42:50.533Z,7.80
2023-04-01T22:46:01.921Z,7.70
2023-04-01T22:48:42.204Z,7.70
2023-04-01T22:51:18.662Z,7.70
2023-04-01T22:54:16.648Z,7.70
2023-04-01T22:57:17.954Z,7.60
2023-04-01T23:00:08.885Z,7.60
2023-04-01T23:02:43.498Z,7.60
2023-04-01T23:05:16.357Z,7.60
2023-04-01T23:08:01.525Z,7.60
2023-04-01T23:10:53.689Z,7.50
2023-04-01T23:13:28.452Z,7.50
2023-04-01T23:15:56.325Z,7.50
2023-04-01T23:18:46.482Z,7.40
2023-04-01T23:21:22.147Z,7.40
2023-04-01T23:23:56.387Z,7.40
2023-04-01T23:26:38.517Z,7.30
2023-04-01T23:29:12.532Z,7.30
2023-04-01T23:31:44.000Z,7.30
2023-04-01T23:34:14.428Z,7.20
2023-04-01T23:36:49.731Z,7.10
2023-04-01T23:39:41.239Z,7.00
2023-04-01T23:42:16.756Z,7.00
2023-04-01T23:44:45.033Z,6.90
2023-04-01T23:47:18.031Z,6.90
2023-04-01T23:49:58.475Z,6.90
2023-04-01T23:52:35.907Z,6.80
2023-04-01T23:55:11.684Z,6.90
2023-04-01T23:57:39.074Z,6.80
